createdAt,value
2017-12-14T00:00:17.150Z,100.00
2017-12-14T00:02:45.500Z,99.45
2017-12-14T00:05:13.873Z,98.83
2017-12-14T00:07:42.241Z,98.53
2017-12-14T00:10:10.583Z,98.47
2017-12-14T00:12:38.934Z,98.41
2017-12-14T00:15:07.996Z,97.87
2017-12-14T00:17:36.324Z,96.99
2017-12-14T00:20:04.657Z,96.65
2017-12-14T00:22:32.984Z,96.04
2017-12-14T00:25:00.660Z,95.88
2017-12-14T00:27:29.059Z,95.59
2017-12-14T00:29:57.405Z,95.13
2017-12-14T00:32:25.731Z,95.21
2017-12-14T00:34:54.063Z,94.83
2017-12-14T00:37:22.396Z,94.42
2017-12-14T00:39:50.724Z,95.25
2017-12-14T00:42:19.063Z,96.60
2017-12-14T00:44:47.382Z,97.19
2017-12-14T00:47:15.721Z,97.33
2017-12-14T00:49:44.807Z,98.22
2017-12-14T00:52:13.136Z,98.91
2017-12-14T00:54:41.459Z,97.89
2017-12-14T00:57:10.559Z,97.58
2017-12-14T00:59:38.896Z,97.80
2017-12-14T01:02:07.249Z,96.92
2017-12-14T01:04:35.581Z,96.32
2017-12-14T01:07:04.689Z,96.06
2017-12-14T01:09:33.030Z,96.13
2017-12-14T01:12:01.385Z,96.15
2017-12-14T01:14:29.721Z,95.30
2017-12-14T01:16:58.851Z,94.81
2017-12-14T01:19:27.193Z,95.33
2017-12-14T01:21:56.297Z,94.35
2017-12-14T01:24:24.615Z,94.34
2017-12-14T01:26:52.943Z,94.41
2017-12-14T01:29:21.301Z,93.34
2017-12-14T01:31:50.221Z,93.04
2017-12-14T01:34:19.341Z,93.17
2017-12-14T01:36:47.681Z,92.69
2017-12-14T01:39:16.059Z,92.32
2017-12-14T01:41:44.382Z,92.11
2017-12-14T01:44:12.719Z,92.39
2017-12-14T01:46:41.817Z,92.19
2017-12-14T01:49:10.138Z,92.46
2017-12-14T01:51:39.848Z,92.42
2017-12-14T01:54:08.171Z,92.62
2017-12-14T01:56:36.511Z,92.73
2017-12-14T01:59:04.834Z,93.20
2017-12-14T02:01:33.946Z,92.46
2017-12-14T02:04:02.304Z,92.72
2017-12-14T02:06:31.410Z,91.99
2017-12-14T02:08:59.750Z,92.19
2017-12-14T02:11:28.087Z,91.83
2017-12-14T02:13:56.426Z,92.38
2017-12-14T02:16:24.752Z,92.99
2017-12-14T02:18:53.151Z,93.20
2017-12-14T02:21:21.480Z,93.67
2017-12-14T02:23:49.829Z,93.45
2017-12-14T02:26:18.155Z,92.85
2017-12-14T02:28:46.509Z,92.75
2017-12-14T02:31:14.835Z,93.55
2017-12-14T02:33:43.165Z,93.99
2017-12-14T02:36:11.486Z,95.80
2017-12-14T02:38:39.838Z,95.29
2017-12-14T02:41:08.179Z,94.54
2017-12-14T02:43:37.285Z,94.59
2017-12-14T02:46:05.661Z,94.66
2017-12-14T02:48:33.980Z,94.20
2017-12-14T02:51:02.298Z,95.50
2017-12-14T02:53:30.626Z,95.29
2017-12-14T02:55:58.989Z,95.48
2017-12-14T02:58:27.315Z,95.57
2017-12-14T03:00:55.684Z,95.49
2017-12-14T03:03:24.032Z,95.48
2017-12-14T03:05:52.369Z,95.36
2017-12-14T03:08:20.704Z,94.72
2017-12-14T03:10:49.072Z,94.67
2017-12-14T03:13:17.394Z,94.38
2017-12-14T03:15:46.542Z,93.78
2017-12-14T03:18:15.771Z,94.59
2017-12-14T03:20:44.095Z,94.17
2017-12-14T03:23:13.194Z,94.70
2017-12-14T03:25:41.538Z,95.45
2017-12-14T03:28:09.877Z,95.48
2017-12-14T03:30:38.256Z,95.21
2017-12-14T03:33:08.120Z,95.56
2017-12-14T03:35:37.015Z,95.10
2017-12-14T03:38:05.355Z,94.87
2017-12-14T03:40:33.709Z,94.78
2017-12-14T03:43:02.032Z,94.59
2017-12-14T03:45:30.357Z,95.16
2017-12-14T03:47:58.714Z,95.12
2017-12-14T03:50:27.824Z,94.97
2017-12-14T03:52:56.142Z,94.71
2017-12-14T03:55:24.467Z,94.39
2017-12-14T03:57:53.554Z,94.37
2017-12-14T04:00:22.656Z,94.11
2017-12-14T04:02:51.012Z,93.73
2017-12-14T04:05:19.334Z,93.64
2017-12-14T04:07:47.668Z,92.63
2017-12-14T04:10:15.991Z,93.07
2017-12-14T04:12:44.306Z,93.67
2017-12-14T04:15:12.625Z,93.45
2017-12-14T04:17:40.957Z,93.31
2017-12-14T04:20:09.283Z,93.01
2017-12-14T04:22:37.617Z,94.26
2017-12-14T04:25:05.939Z,95.92
2017-12-14T04:27:34.291Z,96.34
2017-12-14T04:30:03.380Z,96.70
2017-12-14T04:32:31.708Z,96.95
2017-12-14T04:35:00.036Z,96.96
2017-12-14T04:37:28.359Z,97.25
2017-12-14T04:39:56.685Z,97.34
2017-12-14T04:42:25.019Z,97.94
2017-12-14T04:44:53.346Z,98.08
2017-12-14T04:47:21.693Z,98.49
2017-12-14T04:49:50.042Z,98.40
2017-12-14T04:52:18.384Z,98.23
2017-12-14T04:54:47.462Z,98.33
2017-12-14T04:57:15.810Z,98.78
2017-12-14T04:59:44.141Z,99.34
2017-12-14T05:02:14.282Z,100.00
2017-12-14T05:04:42.698Z,100.00
2017-12-14T05:07:11.015Z,100.00
2017-12-14T05:09:39.367Z,100.00
2017-12-14T05:12:07.692Z,100.00
2017-12-14T05:14:36.015Z,99.85
2017-12-14T05:17:04.349Z,99.72
2017-12-14T05:19:33.420Z,98.65
2017-12-14T05:22:02.552Z,98.16
2017-12-14T05:24:30.876Z,98.24
2017-12-14T05:26:59.210Z,97.99
2017-12-14T05:29:27.537Z,98.08
2017-12-14T05:31:55.852Z,97.48
2017-12-14T05:34:24.173Z,98.11
2017-12-14T05:36:52.517Z,98.28
2017-12-14T05:39:20.841Z,98.99
2017-12-14T05:41:49.181Z,99.16
2017-12-14T05:44:17.542Z,98.44
2017-12-14T05:46:45.881Z,98.18
2017-12-14T05:49:14.269Z,98.80
2017-12-14T05:51:42.605Z,98.17
2017-12-14T05:54:10.959Z,97.11
2017-12-14T05:56:40.450Z,97.39
2017-12-14T05:59:08.781Z,97.10
2017-12-14T06:01:37.111Z,96.77
2017-12-14T06:04:05.449Z,96.87
2017-12-14T06:06:33.805Z,96.69
2017-12-14T06:09:02.166Z,97.82
2017-12-14T06:11:31.407Z,98.55
2017-12-14T06:14:00.505Z,99.12
2017-12-14T06:16:28.824Z,99.54
2017-12-14T06:18:57.510Z,100.00
2017-12-14T06:21:25.897Z,100.00
2017-12-14T06:23:54.234Z,100.00
2017-12-14T06:26:23.412Z,100.00
2017-12-14T06:28:51.755Z,100.00
2017-12-14T06:31:20.119Z,100.00
2017-12-14T06:33:48.467Z,100.00
2017-12-14T06:36:16.819Z,100.00
2017-12-14T06:38:45.169Z,100.00
2017-12-14T06:41:13.509Z,100.00
2017-12-14T06:43:41.835Z,100.00
2017-12-14T06:46:10.286Z,100.00
2017-12-14T06:48:38.645Z,100.00
2017-12-14T06:51:07.024Z,100.00
2017-12-14T06:53:35.358Z,100.00
2017-12-14T06:56:03.702Z,100.00
2017-12-14T06:58:32.023Z,100.00
2017-12-14T07:01:00.374Z,100.00
2017-12-14T07:03:30.543Z,100.00
2017-12-14T07:05:58.880Z,100.00
2017-12-14T07:08:27.246Z,100.00
2017-12-14T07:10:55.629Z,100.00
2017-12-14T07:13:26.384Z,100.00
2017-12-14T07:15:54.797Z,100.00
2017-12-14T07:18:23.090Z,100.00
2017-12-14T07:20:51.442Z,100.00
2017-12-14T07:23:19.777Z,100.00
2017-12-14T07:25:51.615Z,100.00
2017-12-14T07:28:19.935Z,100.00
2017-12-14T07:30:48.306Z,100.00
2017-12-14T07:33:16.639Z,100.00
2017-12-14T07:35:45.002Z,100.00
2017-12-14T07:38:13.323Z,100.00
2017-12-14T07:40:41.674Z,100.00
2017-12-14T07:43:19.443Z,100.00
2017-12-14T07:46:14.482Z,100.00
2017-12-14T07:49:00.465Z,100.00
2017-12-14T07:51:28.800Z,100.00
2017-12-14T07:53:57.528Z,99.42
2017-12-14T07:56:25.885Z,99.75
2017-12-14T07:58:54.214Z,99.24
2017-12-14T08:01:22.566Z,98.50
2017-12-14T08:03:50.910Z,96.46
2017-12-14T08:06:19.252Z,95.06
2017-12-14T08:08:47.586Z,93.75
2017-12-14T08:11:15.903Z,94.69
2017-12-14T08:13:44.263Z,94.14
2017-12-14T08:16:13.782Z,94.53
2017-12-14T08:18:42.141Z,92.21
2017-12-14T08:21:10.511Z,92.43
2017-12-14T08:23:38.927Z,90.88
2017-12-14T08:26:07.298Z,90.89
2017-12-14T08:28:37.195Z,91.61
2017-12-14T08:31:05.549Z,92.95
2017-12-14T08:33:33.867Z,92.61
2017-12-14T08:36:02.236Z,92.93
2017-12-14T08:38:30.563Z,92.58
2017-12-14T08:40:59.674Z,91.90
2017-12-14T08:43:28.042Z,91.76
2017-12-14T08:45:57.171Z,91.27
2017-12-14T08:48:25.534Z,90.06
2017-12-14T08:50:55.231Z,91.26
2017-12-14T08:53:24.330Z,90.61
2017-12-14T08:55:53.747Z,91.28
2017-12-14T08:58:22.083Z,90.71
2017-12-14T09:00:50.418Z,90.23
2017-12-14T09:03:18.753Z,90.90
2017-12-14T09:05:47.112Z,91.85
2017-12-14T09:08:15.517Z,90.78
2017-12-14T09:10:44.602Z,91.78
2017-12-14T09:13:12.919Z,91.28
2017-12-14T09:15:41.269Z,91.86
2017-12-14T09:18:09.617Z,92.60
2017-12-14T09:20:38.376Z,92.35
2017-12-14T09:23:06.751Z,92.59
2017-12-14T09:25:36.271Z,92.11
2017-12-14T09:28:04.726Z,92.16
2017-12-14T09:30:33.075Z,92.00
2017-12-14T09:33:01.451Z,91.78
2017-12-14T09:35:29.829Z,91.64
2017-12-14T09:37:58.216Z,91.40
2017-12-14T09:40:27.386Z,91.50
2017-12-14T09:42:55.745Z,91.44
2017-12-14T09:45:24.111Z,91.35
2017-12-14T09:47:52.503Z,91.68
2017-12-14T09:50:21.920Z,90.63
2017-12-14T09:52:51.078Z,90.51
2017-12-14T09:55:19.404Z,90.61
2017-12-14T09:57:48.536Z,90.88
2017-12-14T10:00:16.940Z,90.85
2017-12-14T10:02:45.335Z,91.36
2017-12-14T10:05:14.466Z,90.96
2017-12-14T10:07:42.816Z,90.88
2017-12-14T10:10:11.135Z,90.93
2017-12-14T10:12:39.498Z,90.00
2017-12-14T10:15:09.295Z,89.37
2017-12-14T10:17:39.633Z,89.77
2017-12-14T10:20:13.973Z,90.77
2017-12-14T10:22:47.398Z,89.86
2017-12-14T10:25:15.747Z,89.19
2017-12-14T10:27:44.105Z,89.72
2017-12-14T10:30:13.187Z,89.45
2017-12-14T10:32:41.616Z,89.60
2017-12-14T10:35:09.954Z,88.54
2017-12-14T10:37:38.319Z,88.14
2017-12-14T10:40:06.648Z,88.21
2017-12-14T10:42:35.026Z,88.68
2017-12-14T10:45:03.347Z,89.46
2017-12-14T10:47:31.674Z,89.58
2017-12-14T10:50:00.020Z,89.97
2017-12-14T10:52:28.359Z,90.22
2017-12-14T10:54:56.689Z,90.75
2017-12-14T10:57:25.381Z,92.07
2017-12-14T10:59:53.730Z,91.89
2017-12-14T11:02:22.257Z,91.96
2017-12-14T11:04:50.766Z,91.03
2017-12-14T11:07:19.109Z,91.35
2017-12-14T11:09:48.213Z,91.24
2017-12-14T11:12:16.553Z,91.17
2017-12-14T11:14:45.674Z,91.13
2017-12-14T11:17:14.009Z,91.78
2017-12-14T11:19:42.371Z,91.94
2017-12-14T11:22:10.848Z,92.76
2017-12-14T11:24:39.887Z,93.75
2017-12-14T11:27:08.247Z,95.15
2017-12-14T11:29:37.348Z,94.84
2017-12-14T11:32:05.998Z,95.47
2017-12-14T11:34:34.347Z,95.41
2017-12-14T11:37:02.734Z,94.80
2017-12-14T11:39:31.067Z,95.67
2017-12-14T11:42:00.205Z,95.48
2017-12-14T11:44:28.533Z,95.75
2017-12-14T11:46:56.866Z,96.29
2017-12-14T11:49:25.221Z,96.47
2017-12-14T11:51:53.572Z,95.61
2017-12-14T11:54:22.777Z,95.85
2017-12-14T11:56:51.340Z,95.62
2017-12-14T11:59:19.815Z,96.41
2017-12-14T12:01:48.183Z,96.59
2017-12-14T12:04:16.741Z,97.16
2017-12-14T12:06:45.136Z,97.40
2017-12-14T12:09:13.477Z,97.45
2017-12-14T12:11:41.826Z,97.77
2017-12-14T12:14:11.007Z,97.87
2017-12-14T12:16:40.245Z,97.78
2017-12-14T12:19:08.582Z,98.77
2017-12-14T12:21:36.934Z,98.39
2017-12-14T12:24:05.293Z,98.90
2017-12-14T12:26:34.038Z,98.95
2017-12-14T12:29:02.360Z,99.73
2017-12-14T12:31:30.684Z,100.00
2017-12-14T12:33:59.039Z,99.90
2017-12-14T12:36:27.394Z,99.27
2017-12-14T12:38:55.715Z,99.31
2017-12-14T12:41:24.072Z,98.85
2017-12-14T12:43:52.396Z,98.91
2017-12-14T12:46:20.718Z,99.37
2017-12-14T12:48:49.042Z,99.72
2017-12-14T12:51:18.129Z,99.95
2017-12-14T12:53:46.468Z,100.00
2017-12-14T12:56:14.827Z,100.00
2017-12-14T12:58:43.173Z,100.00
2017-12-14T13:01:12.262Z,100.00
2017-12-14T13:03:40.587Z,100.00
2017-12-14T13:06:08.919Z,100.00
2017-12-14T13:08:37.262Z,100.00
2017-12-14T13:11:05.587Z,100.00
2017-12-14T13:13:33.915Z,100.00
2017-12-14T13:16:02.235Z,100.00
2017-12-14T13:18:31.378Z,100.00
2017-12-14T13:20:59.711Z,99.87
2017-12-14T13:23:28.070Z,100.00
2017-12-14T13:25:56.474Z,100.00
2017-12-14T13:28:24.855Z,100.00
2017-12-14T13:30:53.202Z,99.27
2017-12-14T13:33:21.543Z,99.71
2017-12-14T13:35:49.880Z,99.29
2017-12-14T13:38:18.954Z,99.22
2017-12-14T13:40:47.284Z,98.90
2017-12-14T13:43:15.595Z,97.88
2017-12-14T13:45:43.951Z,97.25
2017-12-14T13:48:12.288Z,96.85
2017-12-14T13:50:41.376Z,96.93
2017-12-14T13:53:10.475Z,96.70
2017-12-14T13:55:39.558Z,96.34
2017-12-14T13:58:08.646Z,96.67
2017-12-14T14:00:36.992Z,95.77
2017-12-14T14:03:06.045Z,95.88
2017-12-14T14:05:35.199Z,95.06
2017-12-14T14:08:03.544Z,95.63
2017-12-14T14:10:34.238Z,95.47
2017-12-14T14:13:02.576Z,96.36
2017-12-14T14:15:30.899Z,95.76
2017-12-14T14:17:59.987Z,95.01
2017-12-14T14:20:28.313Z,95.11
2017-12-14T14:22:56.638Z,94.93
2017-12-14T14:25:26.706Z,95.03
2017-12-14T14:27:56.687Z,95.06
2017-12-14T14:30:24.993Z,94.56
2017-12-14T14:32:53.325Z,94.11
2017-12-14T14:35:21.651Z,93.63
2017-12-14T14:37:49.975Z,93.10
2017-12-14T14:40:18.306Z,93.45
2017-12-14T14:42:46.632Z,93.38
2017-12-14T14:45:15.727Z,93.88
2017-12-14T14:47:45.444Z,94.26
2017-12-14T14:50:13.784Z,94.91
2017-12-14T14:52:42.107Z,94.50
2017-12-14T14:55:11.211Z,94.39
2017-12-14T14:57:39.559Z,95.75
2017-12-14T15:00:07.886Z,96.46
2017-12-14T15:02:36.215Z,97.38
2017-12-14T15:05:04.568Z,97.68
2017-12-14T15:07:32.898Z,97.43
2017-12-14T15:10:01.288Z,97.61
2017-12-14T15:12:29.670Z,98.25
2017-12-14T15:14:57.998Z,97.79
2017-12-14T15:17:26.332Z,97.52
2017-12-14T15:19:54.648Z,97.44
2017-12-14T15:22:22.997Z,97.44
2017-12-14T15:24:51.342Z,97.38
2017-12-14T15:27:19.670Z,97.87
2017-12-14T15:29:47.984Z,98.22
2017-12-14T15:32:16.315Z,98.20
2017-12-14T15:34:44.657Z,97.79
2017-12-14T15:37:12.980Z,98.12
2017-12-14T15:39:41.305Z,97.93
2017-12-14T15:42:10.559Z,98.15
2017-12-14T15:44:39.740Z,97.36
2017-12-14T15:47:08.067Z,96.94
2017-12-14T15:49:36.381Z,96.65
2017-12-14T15:52:04.711Z,96.26
2017-12-14T15:54:33.798Z,96.17
2017-12-14T15:57:02.125Z,95.64
2017-12-14T15:59:30.455Z,94.96
2017-12-14T16:01:58.803Z,94.77
2017-12-14T16:04:27.127Z,94.15
2017-12-14T16:06:55.470Z,93.84
2017-12-14T16:09:23.807Z,93.38
2017-12-14T16:11:52.201Z,93.44
2017-12-14T16:14:20.557Z,92.96
2017-12-14T16:16:48.896Z,92.71
2017-12-14T16:19:17.260Z,92.84
2017-12-14T16:21:45.620Z,93.55
2017-12-14T16:24:13.964Z,94.37
2017-12-14T16:26:44.234Z,93.93
2017-12-14T16:29:12.567Z,94.22
2017-12-14T16:31:40.930Z,94.61
2017-12-14T16:34:10.208Z,95.09
2017-12-14T16:36:39.354Z,95.77
2017-12-14T16:39:07.709Z,96.15
2017-12-14T16:41:36.169Z,95.55
2017-12-14T16:44:04.565Z,96.21
2017-12-14T16:46:33.144Z,95.55
2017-12-14T16:49:02.024Z,95.58
2017-12-14T16:51:30.724Z,95.65
2017-12-14T16:53:59.366Z,95.69
2017-12-14T16:56:27.919Z,95.48
2017-12-14T16:58:56.446Z,95.28
2017-12-14T17:01:25.755Z,94.23
2017-12-14T17:03:54.359Z,93.78
2017-12-14T17:06:23.049Z,93.36
2017-12-14T17:08:51.561Z,93.11
2017-12-14T17:11:20.165Z,93.21
2017-12-14T17:13:48.794Z,92.85
2017-12-14T17:16:17.660Z,93.22
2017-12-14T17:18:46.346Z,93.63
2017-12-14T17:21:15.589Z,93.12
2017-12-14T17:23:44.069Z,93.25
2017-12-14T17:26:12.488Z,93.44
2017-12-14T17:28:40.908Z,93.31
2017-12-14T17:31:09.580Z,93.93
2017-12-14T17:33:38.101Z,93.56
2017-12-14T17:36:06.528Z,93.02
2017-12-14T17:38:34.875Z,94.06
2017-12-14T17:41:03.552Z,93.53
2017-12-14T17:43:31.947Z,93.70
2017-12-14T17:46:00.351Z,93.51
2017-12-14T17:48:28.918Z,93.21
2017-12-14T17:50:58.368Z,93.02
2017-12-14T17:53:26.887Z,92.40
2017-12-14T17:55:55.688Z,92.16
2017-12-14T17:58:25.175Z,92.61
2017-12-14T18:00:54.227Z,92.65
2017-12-14T18:03:23.056Z,91.98
2017-12-14T18:05:51.698Z,92.33
2017-12-14T18:08:20.719Z,92.53
2017-12-14T18:10:50.256Z,92.20
2017-12-14T18:13:19.733Z,92.21
2017-12-14T18:15:50.036Z,92.23
2017-12-14T18:18:19.768Z,92.46
2017-12-14T18:20:49.539Z,92.39
2017-12-14T18:23:19.363Z,92.55
2017-12-14T18:25:49.949Z,92.13
2017-12-14T18:28:20.342Z,92.78
2017-12-14T18:30:50.226Z,93.24
2017-12-14T18:33:20.134Z,93.39
2017-12-14T18:35:50.040Z,93.61
2017-12-14T18:38:19.945Z,93.90
2017-12-14T18:40:50.372Z,93.51
2017-12-14T18:43:20.307Z,93.27
2017-12-14T18:45:50.167Z,93.40
2017-12-14T18:48:20.801Z,93.65
2017-12-14T18:50:51.548Z,93.61
2017-12-14T18:53:21.556Z,93.24
2017-12-14T18:55:51.575Z,92.88
2017-12-14T18:58:21.455Z,93.02
2017-12-14T19:00:52.012Z,92.69
2017-12-14T19:03:22.094Z,92.45
2017-12-14T19:05:52.206Z,92.37
2017-12-14T19:08:22.316Z,91.56
2017-12-14T19:10:52.887Z,91.83
2017-12-14T19:13:22.988Z,92.12
2017-12-14T19:15:53.061Z,92.25
2017-12-14T19:18:23.282Z,92.34
2017-12-14T19:20:54.378Z,92.47
2017-12-14T19:23:25.079Z,92.31
2017-12-14T19:25:55.026Z,92.45
2017-12-14T19:28:24.969Z,92.01
2017-12-14T19:30:55.943Z,92.61
2017-12-14T19:33:25.842Z,92.22
2017-12-14T19:35:55.885Z,92.12
2017-12-14T19:38:25.813Z,92.70
2017-12-14T19:40:56.847Z,93.10
2017-12-14T19:43:28.586Z,94.38
2017-12-14T19:45:58.635Z,94.08
2017-12-14T19:48:29.501Z,93.93
2017-12-14T19:50:59.417Z,93.80
2017-12-14T19:53:29.421Z,93.31
2017-12-14T19:55:59.397Z,93.83
2017-12-14T19:58:30.130Z,96.11
2017-12-14T20:01:02.936Z,95.86
2017-12-14T20:03:33.104Z,95.42
2017-12-14T20:06:03.101Z,95.22
2017-12-14T20:08:33.071Z,95.44
2017-12-14T20:11:03.129Z,94.93
2017-12-14T20:13:33.179Z,94.33
2017-12-14T20:16:03.214Z,94.47
2017-12-14T20:18:33.722Z,94.65
2017-12-14T20:21:03.702Z,95.00
2017-12-14T20:23:33.701Z,94.79
2017-12-14T20:26:06.130Z,94.58
2017-12-14T20:28:36.207Z,94.26
2017-12-14T20:31:06.152Z,93.75
2017-12-14T20:33:36.152Z,93.54
2017-12-14T20:36:06.980Z,93.59
2017-12-14T20:38:37.910Z,94.54
2017-12-14T20:41:07.837Z,94.70
2017-12-14T20:43:37.832Z,94.91
2017-12-14T20:46:07.879Z,95.18
2017-12-14T20:48:37.853Z,94.83
2017-12-14T20:51:07.975Z,94.55
2017-12-14T20:53:38.246Z,94.70
2017-12-14T20:56:08.190Z,94.90
2017-12-14T20:58:38.200Z,94.66
2017-12-14T21:01:08.346Z,94.76
2017-12-14T21:03:38.382Z,95.57
2017-12-14T21:06:08.515Z,94.70
2017-12-14T21:08:38.409Z,95.84
2017-12-14T21:11:10.532Z,95.17
2017-12-14T21:13:40.481Z,95.59
2017-12-14T21:16:10.441Z,95.62
2017-12-14T21:18:41.337Z,95.90
2017-12-14T21:21:11.203Z,95.31
2017-12-14T21:23:41.110Z,95.53
2017-12-14T21:26:11.031Z,95.39
2017-12-14T21:28:41.047Z,95.88
2017-12-14T21:31:11.168Z,95.84
2017-12-14T21:33:41.058Z,95.71
2017-12-14T21:36:11.018Z,95.37
2017-12-14T21:38:40.945Z,95.83
2017-12-14T21:41:11.821Z,96.47
2017-12-14T21:43:41.749Z,96.13
2017-12-14T21:46:11.693Z,96.12
2017-12-14T21:48:41.595Z,95.79
2017-12-14T21:51:11.501Z,95.54
2017-12-14T21:53:41.428Z,95.68
2017-12-14T21:56:11.475Z,95.26
2017-12-14T21:58:41.379Z,95.24
2017-12-14T22:01:12.142Z,95.44
2017-12-14T22:03:42.101Z,95.54
2017-12-14T22:06:11.881Z,95.92
2017-12-14T22:08:42.548Z,95.84
2017-12-14T22:11:13.222Z,95.91
2017-12-14T22:13:42.982Z,95.45
2017-12-14T22:16:12.688Z,94.97
2017-12-14T22:18:41.633Z,95.75
2017-12-14T22:21:10.042Z,95.34
2017-12-14T22:23:38.513Z,95.35
2017-12-14T22:26:06.917Z,95.33
2017-12-14T22:28:35.370Z,95.68
2017-12-14T22:31:03.758Z,95.40
2017-12-14T22:33:32.276Z,95.26
2017-12-14T22:36:00.778Z,95.21
2017-12-14T22:38:29.113Z,95.63
2017-12-14T22:40:57.502Z,96.46
2017-12-14T22:43:25.826Z,96.24
2017-12-14T22:45:54.184Z,96.77
2017-12-14T22:48:22.515Z,97.08
2017-12-14T22:50:50.835Z,97.64
2017-12-14T22:53:19.165Z,97.39
2017-12-14T22:55:47.493Z,97.84
2017-12-14T22:58:15.817Z,98.72
2017-12-14T23:00:44.186Z,97.78
2017-12-14T23:03:12.667Z,97.03
2017-12-14T23:05:41.016Z,96.84
2017-12-14T23:08:10.805Z,97.71
2017-12-14T23:10:41.295Z,97.19
2017-12-14T23:13:09.619Z,97.22
2017-12-14T23:15:37.943Z,97.88
2017-12-14T23:18:06.273Z,98.29
2017-12-14T23:20:34.599Z,99.17
2017-12-14T23:23:03.931Z,99.85
2017-12-14T23:25:32.263Z,99.33
2017-12-14T23:28:00.583Z,98.58
2017-12-14T23:30:28.910Z,97.25
2017-12-14T23:32:57.250Z,97.63
2017-12-14T23:35:25.585Z,97.45
2017-12-14T23:37:53.915Z,98.29
2017-12-14T23:40:22.243Z,98.58
2017-12-14T23:42:50.566Z,98.33
2017-12-14T23:45:18.894Z,98.63
2017-12-14T23:47:47.227Z,98.26
2017-12-14T23:50:15.554Z,97.99
2017-12-14T23:52:43.873Z,97.20
2017-12-14T23:55:12.190Z,96.93
2017-12-14T23:57:40.515Z,97.21
